Time;durP1;ratioP1;P1;durP2;ratioP2;P2;SDS_P1;SDS_P2;PMS_P1;PMS_P2;Temp;Humidity;BMP_temperature;BMP_pressure;BME280_temperature;BME280_humidity;BME280_pressure;Samples;Min_cycle;Max_cycle;Signal;HPM_P1;HPM_P2
2021/06/02 00:02:10;;;;;;;;;;;;;;;9.07;69.38;97304.80;1639559;87;20169;-79
2021/06/02 00:04:42;;;;;;;;;;;;;;;9.12;67.92;97300.04;1659196;87;20189;-81
2021/06/02 00:07:10;;;;;;;;;;;;;;;9.19;68.30;97296.50;1657903;87;20192;-80
2021/06/02 00:09:37;;;;;;;;;;;;;;;9.26;69.38;97301.69;1658611;87;20206;-81
2021/06/02 00:12:07;;;;;;;;;;;;;;;9.33;69.41;97306.86;1658758;87;20241;-79
2021/06/02 00:14:33;;;;;;;;;;;;;;;9.37;68.76;97300.94;1658777;87;20565;-80
2021/06/02 00:16:59;;;;;;;;;;;;;;;9.44;68.75;97296.91;1659118;87;20174;-80
2021/06/02 00:19:28;;;;;;;;;;;;;;;9.51;67.85;97298.62;1659019;87;20149;-81
2021/06/02 00:21:58;;;;;;;;;;;;;;;9.56;67.22;97296.48;1658727;87;20161;-79
2021/06/02 00:24:25;;;;;;;;;;;;;;;9.62;67.39;97295.19;1655451;87;20247;-81
2021/06/02 00:26:57;;;;;;;;;;;;;;;9.68;68.17;97302.63;1642824;87;20218;-79
2021/06/02 00:29:26;;;;;;;;;;;;;;;9.75;67.21;97303.84;1650535;87;20175;-80
2021/06/02 00:31:53;;;;;;;;;;;;;;;9.77;68.27;97306.39;1631500;88;20172;-80
2021/06/02 00:34:20;;;;;;;;;;;;;;;9.80;68.01;97299.56;1642631;87;20193;-80
2021/06/02 00:36:47;;;;;;;;;;;;;;;9.80;67.69;97303.52;1658813;87;20162;-81
2021/06/02 00:39:13;;;;;;;;;;;;;;;9.77;67.92;97300.64;1659303;87;20233;-78
2021/06/02 00:41:42;;;;;;;;;;;;;;;9.76;67.50;97302.08;1659321;87;20169;-79
2021/06/02 00:44:09;;;;;;;;;;;;;;;9.74;68.18;97299.56;1659223;87;20181;-78
2021/06/02 00:46:37;;;;;;;;;;;;;;;9.74;68.17;97306.15;1658799;87;20193;-79
2021/06/02 00:49:09;;;;;;;;;;;;;;;9.73;66.77;97303.15;1659863;87;20214;-81
2021/06/02 00:51:36;;;;;;;;;;;;;;;9.65;67.07;97302.38;1660176;87;20174;-81
2021/06/02 00:54:04;;;;;;;;;;;;;;;9.61;67.77;97298.28;1656750;87;20213;-81
2021/06/02 00:56:38;;;;;;;;;;;;;;;9.57;68.11;97302.56;1660500;87;20138;-81
2021/06/02 00:59:04;;;;;;;;;;;;;;;9.52;67.91;97298.50;1654051;87;20158;-80
2021/06/02 01:01:34;;;;;;;;;;;;;;;9.45;67.67;97302.99;1714638;83;20148;-79
2021/06/02 01:04:04;;;;;;;;;;;;;;;9.35;67.06;97302.34;1718738;84;20244;-79
2021/06/02 01:06:35;;;;;;;;;;;;;;;9.24;67.66;97297.49;1719043;84;20148;-79
2021/06/02 01:09:04;;;;;;;;;;;;;;;9.14;67.37;97302.09;1719012;84;20168;-79
2021/06/02 01:11:30;;;;;;;;;;;;;;;9.05;68.34;97297.00;1719238;83;20516;-83
2021/06/02 01:13:58;;;;;;;;;;;;;;;8.99;67.80;97296.13;1713485;84;20156;-81
2021/06/02 01:16:30;;;;;;;;;;;;;;;8.90;70.28;97296.78;1719296;84;20168;-80
2021/06/02 01:18:57;;;;;;;;;;;;;;;8.84;68.41;97294.59;1719229;84;20228;-85
2021/06/02 01:21:26;;;;;;;;;;;;;;;8.77;70.45;97294.66;1719206;84;20172;-77
2021/06/02 01:23:57;;;;;;;;;;;;;;;8.67;68.88;97293.98;1718702;84;20211;-81
2021/06/02 01:26:25;;;;;;;;;;;;;;;8.61;68.74;97288.31;1704959;84;20236;-83
2021/06/02 01:28:52;;;;;;;;;;;;;;;8.53;70.14;97290.14;1718766;84;20556;-80
2021/06/02 01:31:34;;;;;;;;;;;;;;;8.46;68.87;97292.80;1718755;84;20228;-83
2021/06/02 01:34:06;;;;;;;;;;;;;;;8.38;68.24;97292.86;1718064;82;20157;-85
2021/06/02 01:36:48;;;;;;;;;;;;;;;8.29;68.59;97291.69;1718604;83;20151;-82
2021/06/02 01:39:35;;;;;;;;;;;;;;;8.27;68.24;97290.11;1716302;83;20208;-81
2021/06/02 01:42:25;;;;;;;;;;;;;;;8.23;68.74;97293.42;1718932;84;20150;-82
2021/06/02 01:45:27;;;;;;;;;;;;;;;8.21;68.88;97290.54;1719102;84;20228;-84
2021/06/02 01:48:13;;;;;;;;;;;;;;;8.18;69.08;97288.94;1718386;83;20164;-85
2021/06/02 01:50:55;;;;;;;;;;;;;;;8.18;69.60;97286.31;1719036;84;20153;-82
2021/06/02 01:53:43;;;;;;;;;;;;;;;8.19;70.53;97294.56;1718811;84;20141;-80
2021/06/02 01:56:29;;;;;;;;;;;;;;;8.19;70.83;97288.00;1673937;84;20198;-84
2021/06/02 01:59:20;;;;;;;;;;;;;;;8.20;69.80;97291.48;1704043;84;20200;-84
2021/06/02 02:01:56;;;;;;;;;;;;;;;8.20;69.40;97296.73;1708629;84;20172;-82
2021/06/02 02:04:59;;;;;;;;;;;;;;;8.19;69.18;97302.92;1716471;82;20180;-83
2021/06/02 02:07:36;;;;;;;;;;;;;;;8.16;69.98;97304.44;1715437;83;20160;-80
2021/06/02 02:10:23;;;;;;;;;;;;;;;8.15;69.71;97301.44;1712047;84;20196;-81
2021/06/02 02:13:26;;;;;;;;;;;;;;;8.16;70.21;97304.44;1715526;84;20584;-83
2021/06/02 02:16:17;;;;;;;;;;;;;;;8.16;69.63;97307.92;1715469;84;20536;-80
2021/06/02 02:19:15;;;;;;;;;;;;;;;8.19;70.37;97308.17;1715579;83;20228;-82
2021/06/02 02:21:57;;;;;;;;;;;;;;;8.17;69.20;97308.26;1715645;83;20232;-79
2021/06/02 02:24:56;;;;;;;;;;;;;;;8.17;69.63;97308.26;1686793;84;20248;-82
2021/06/02 02:27:49;;;;;;;;;;;;;;;8.17;69.48;97309.57;1716402;83;20181;-80
2021/06/02 02:30:47;;;;;;;;;;;;;;;8.16;69.55;97314.48;1711822;84;20230;-83
2021/06/02 02:33:17;;;;;;;;;;;;;;;8.18;69.25;97306.48;1705479;84;20213;-79
2021/06/02 02:36:08;;;;;;;;;;;;;;;8.21;68.91;97308.92;1715956;83;20164;-81
2021/06/02 02:38:57;;;;;;;;;;;;;;;8.20;68.79;97310.69;1716392;83;20185;-83
2021/06/02 02:41:45;;;;;;;;;;;;;;;8.22;69.58;97309.26;1715940;84;20168;-83
2021/06/02 02:44:33;;;;;;;;;;;;;;;8.23;69.16;97311.80;1725615;83;20264;-81
2021/06/02 02:47:06;;;;;;;;;;;;;;;8.21;69.56;97305.81;1725779;83;20176;-84
2021/06/02 02:49:47;;;;;;;;;;;;;;;8.21;69.30;97315.00;1720843;83;20236;-83
2021/06/02 02:52:36;;;;;;;;;;;;;;;8.19;68.77;97312.11;1716886;83;20184;-79
2021/06/02 02:55:18;;;;;;;;;;;;;;;8.18;68.79;97313.05;1716890;83;20213;-83
2021/06/02 02:57:54;;;;;;;;;;;;;;;8.16;69.87;97309.23;1708212;82;20221;-81
2021/06/02 03:00:23;;;;;;;;;;;;;;;8.17;68.22;97314.83;1715415;82;20232;-79
2021/06/02 03:03:05;;;;;;;;;;;;;;;8.19;69.29;97314.73;1713628;84;20505;-81
2021/06/02 03:05:34;;;;;;;;;;;;;;;8.20;69.56;97314.62;1699857;84;20186;-79
2021/06/02 03:08:14;;;;;;;;;;;;;;;8.24;69.94;97323.14;1697289;84;20169;-82
2021/06/02 03:10:43;;;;;;;;;;;;;;;8.26;70.58;97320.77;1713913;84;20498;-81
2021/06/02 03:13:29;;;;;;;;;;;;;;;8.28;70.48;97316.27;1714864;83;20153;-81
2021/06/02 03:16:00;;;;;;;;;;;;;;;8.32;69.86;97318.20;1715013;84;20201;-82
2021/06/02 03:18:43;;;;;;;;;;;;;;;8.37;68.88;97324.00;1714506;84;20228;-81
2021/06/02 03:21:45;;;;;;;;;;;;;;;8.41;68.93;97322.84;1705792;83;20243;-80
2021/06/02 03:24:32;;;;;;;;;;;;;;;8.48;69.25;97326.41;1714377;84;20232;-80
2021/06/02 03:27:04;;;;;;;;;;;;;;;8.54;69.08;97325.98;1714258;84;20231;-82
2021/06/02 03:29:50;;;;;;;;;;;;;;;8.60;69.28;97325.55;1714383;84;20183;-81
2021/06/02 03:32:50;;;;;;;;;;;;;;;8.67;69.19;97328.15;1696881;84;20169;-80
2021/06/02 03:35:22;;;;;;;;;;;;;;;8.73;69.14;97326.86;1715139;84;20220;-82
2021/06/02 03:37:55;;;;;;;;;;;;;;;8.82;67.99;97335.91;1715215;84;20145;-80
2021/06/02 03:40:25;;;;;;;;;;;;;;;8.87;68.32;97336.41;1715175;82;20168;-85
2021/06/02 03:43:00;;;;;;;;;;;;;;;8.95;68.70;97331.95;1715377;84;20204;-83
2021/06/02 03:45:33;;;;;;;;;;;;;;;8.97;67.85;97338.77;1713229;84;20516;-82
2021/06/02 03:48:19;;;;;;;;;;;;;;;9.02;68.21;97343.25;1715479;84;20477;-81
2021/06/02 03:51:04;;;;;;;;;;;;;;;9.08;67.45;97348.56;1715401;84;20137;-79
2021/06/02 03:54:07;;;;;;;;;;;;;;;9.12;67.51;97354.44;1687037;85;20175;-82
2021/06/02 03:57:00;;;;;;;;;;;;;;;9.13;67.35;97353.01;1685765;84;20100;-82
2021/06/02 04:00:05;;;;;;;;;;;;;;;9.19;67.78;97355.68;1685218;85;20155;-83
2021/06/02 04:02:53;;;;;;;;;;;;;;;9.25;67.19;97353.92;1706650;82;20137;-79
2021/06/02 04:05:42;;;;;;;;;;;;;;;9.34;66.97;97353.76;1715163;84;20145;-81
2021/06/02 04:08:15;;;;;;;;;;;;;;;9.40;66.84;97354.63;1690836;85;20183;-79
2021/06/02 04:11:11;;;;;;;;;;;;;;;9.47;67.01;97358.98;1705563;84;20237;-80
2021/06/02 04:13:59;;;;;;;;;;;;;;;9.55;67.09;97357.95;1672080;85;20167;-81
2021/06/02 04:16:37;;;;;;;;;;;;;;;9.65;66.82;97361.60;1675996;84;20158;-79
2021/06/02 04:19:16;;;;;;;;;;;;;;;9.77;66.70;97361.67;1673279;85;20244;-81
2021/06/02 04:21:48;;;;;;;;;;;;;;;9.88;66.39;97361.73;1665417;85;20201;-79
2021/06/02 04:24:16;;;;;;;;;;;;;;;10.01;66.32;97359.04;1661890;85;20157;-80
2021/06/02 04:26:43;;;;;;;;;;;;;;;10.13;66.53;97366.01;1677279;85;20161;-80
2021/06/02 04:29:12;;;;;;;;;;;;;;;10.27;66.36;97368.11;1683304;85;20210;-79
2021/06/02 04:31:48;;;;;;;;;;;;;;;10.44;65.85;97370.84;1664275;86;20181;-81
2021/06/02 04:34:14;;;;;;;;;;;;;;;10.59;65.60;97369.66;1663064;86;20506;-81
2021/06/02 04:36:44;;;;;;;;;;;;;;;10.75;65.55;97368.48;1639922;86;20194;-80
2021/06/02 04:39:11;;;;;;;;;;;;;;;10.91;65.31;97365.51;1662834;86;20237;-80
2021/06/02 04:41:38;;;;;;;;;;;;;;;11.04;64.85;97368.03;1676707;85;20195;-81
2021/06/02 04:44:06;;;;;;;;;;;;;;;11.15;64.30;97365.86;1675129;84;20143;-86
2021/06/02 04:46:32;;;;;;;;;;;;;;;11.23;63.05;97376.19;1712501;84;20152;-86
2021/06/02 04:48:58;;;;;;;;;;;;;;;11.34;63.36;97375.83;1711942;84;20184;-81
2021/06/02 04:52:01;;;;;;;;;;;;;;;11.42;63.15;97376.05;1712504;84;20149;-84
2021/06/02 04:54:54;;;;;;;;;;;;;;;11.47;62.74;97372.55;1712332;84;20511;-84
2021/06/02 04:57:47;;;;;;;;;;;;;;;11.53;63.80;97377.83;1683912;85;20211;-82
2021/06/02 05:00:23;;;;;;;;;;;;;;;11.61;63.04;97375.41;1683771;84;20555;-84
2021/06/02 05:03:10;;;;;;;;;;;;;;;11.65;62.75;97379.96;1672209;84;20215;-84
2021/06/02 05:05:52;;;;;;;;;;;;;;;11.69;63.13;97379.59;1711804;84;20160;-82
2021/06/02 05:08:41;;;;;;;;;;;;;;;11.77;62.94;97380.30;1712355;84;20172;-82
2021/06/02 05:11:13;;;;;;;;;;;;;;;11.84;61.86;97388.58;1688152;84;20191;-80
2021/06/02 05:14:11;;;;;;;;;;;;;;;11.91;62.23;97390.25;1682985;85;20494;-85
2021/06/02 05:16:56;;;;;;;;;;;;;;;11.99;61.81;97393.13;1682959;85;20171;-87
2021/06/02 05:22:34;;;;;;;;;;;;;;;12.16;61.48;97402.30;1683147;85;20154;-86
2021/06/02 05:25:33;;;;;;;;;;;;;;;12.26;61.63;97397.95;1694937;84;20459;-83
2021/06/02 05:28:32;;;;;;;;;;;;;;;12.37;61.02;97400.19;1714681;84;20168;-85
2021/06/02 05:31:34;;;;;;;;;;;;;;;12.41;60.84;97397.66;1714561;84;20183;-82
2021/06/02 05:34:38;;;;;;;;;;;;;;;12.56;60.91;97396.87;1713158;84;20173;-80
2021/06/02 05:37:11;;;;;;;;;;;;;;;12.77;61.34;97395.04;1711651;83;20189;-86
2021/06/02 05:40:12;;;;;;;;;;;;;;;13.13;61.13;97398.16;1711656;84;20153;-81
2021/06/02 05:42:57;;;;;;;;;;;;;;;13.58;59.37;97396.16;1711443;83;20157;-85
2021/06/02 05:45:58;;;;;;;;;;;;;;;14.26;60.28;97394.08;1711592;84;20144;-85
2021/06/02 05:48:40;;;;;;;;;;;;;;;14.86;58.81;97391.77;1711449;84;20512;-82
2021/06/02 05:51:25;;;;;;;;;;;;;;;15.45;56.59;97395.05;1659833;84;20172;-81
2021/06/02 05:53:54;;;;;;;;;;;;;;;16.05;54.60;97394.26;1667427;85;20199;-81
2021/06/02 05:56:51;;;;;;;;;;;;;;;16.64;54.30;97390.62;1680242;85;20172;-84
2021/06/02 05:59:38;;;;;;;;;;;;;;;17.05;53.96;97391.94;1644582;85;20186;-81
2021/06/02 06:02:23;;;;;;;;;;;;;;;17.35;49.70;97398.59;1661145;85;20185;-85
2021/06/02 06:05:09;;;;;;;;;;;;;;;17.39;50.13;97397.30;1660616;85;20190;-82
2021/06/02 06:08:12;;;;;;;;;;;;;;;17.39;50.22;97387.97;1660192;86;20160;-82
2021/06/02 06:10:57;;;;;;;;;;;;;;;17.45;46.92;97397.98;1660400;86;20485;-82
2021/06/02 06:13:35;;;;;;;;;;;;;;;17.59;53.36;97401.87;1618730;86;20174;-83
2021/06/02 06:16:08;;;;;;;;;;;;;;;17.71;51.23;97398.41;1660613;85;20164;-82
2021/06/02 06:18:46;;;;;;;;;;;;;;;17.78;48.94;97398.61;1659921;86;20524;-81
2021/06/02 06:21:33;;;;;;;;;;;;;;;17.88;53.83;97393.13;1662326;85;20208;-80
2021/06/02 06:24:18;;;;;;;;;;;;;;;18.08;52.18;97397.22;1680315;85;20182;-83
2021/06/02 06:27:22;;;;;;;;;;;;;;;18.45;48.81;97396.92;1660667;85;20165;-84
2021/06/02 06:29:56;;;;;;;;;;;;;;;18.76;47.73;97390.42;1679839;82;20174;-81
2021/06/02 06:32:23;;;;;;;;;;;;;;;19.11;51.02;97391.09;1723789;82;20198;-81
2021/06/02 06:34:52;;;;;;;;;;;;;;;19.56;46.93;97383.41;1714347;84;20493;-80
2021/06/02 06:37:19;;;;;;;;;;;;;;;20.05;44.72;97386.88;1714120;84;20232;-79
2021/06/02 06:39:54;;;;;;;;;;;;;;;20.40;42.87;97377.95;1714205;84;20789;-81
2021/06/02 06:42:22;;;;;;;;;;;;;;;20.79;43.76;97376.99;1714203;84;20176;-80
2021/06/02 06:44:53;;;;;;;;;;;;;;;21.16;42.06;97376.63;1711238;84;20512;-83
2021/06/02 06:47:19;;;;;;;;;;;;;;;21.42;41.31;97373.98;1703470;84;20168;-84
2021/06/02 06:49:51;;;;;;;;;;;;;;;21.57;41.30;97377.18;1710427;84;20165;-84
2021/06/02 06:52:20;;;;;;;;;;;;;;;21.71;40.06;97377.69;1707587;84;20194;-86
2021/06/02 06:54:47;;;;;;;;;;;;;;;22.03;40.06;97380.12;1692829;84;20464;-84
2021/06/02 06:57:13;;;;;;;;;;;;;;;22.28;36.84;97374.70;1703289;84;20144;-84
2021/06/02 06:59:39;;;;;;;;;;;;;;;22.36;41.22;97376.44;1711616;83;20164;-82
2021/06/02 07:02:07;;;;;;;;;;;;;;;22.43;40.19;97374.67;1687795;82;20151;-81
2021/06/02 07:04:34;;;;;;;;;;;;;;;22.61;38.12;97381.44;1682657;85;20503;-86
2021/06/02 07:07:00;;;;;;;;;;;;;;;22.66;43.61;97374.99;1677542;85;20165;-87
2021/06/02 07:09:26;;;;;;;;;;;;;;;22.80;37.52;97373.24;1684211;85;20178;-82
2021/06/02 07:11:57;;;;;;;;;;;;;;;22.86;38.15;97368.42;1660129;85;20536;-82
2021/06/02 07:14:25;;;;;;;;;;;;;;;23.06;36.67;97358.33;1681732;85;20205;-82
2021/06/02 07:16:53;;;;;;;;;;;;;;;23.31;43.60;97370.83;1682336;85;20170;-90
2021/06/02 07:19:21;;;;;;;;;;;;;;;23.59;38.09;97365.91;1676698;85;20221;-83
2021/06/02 07:21:48;;;;;;;;;;;;;;;23.94;35.99;97371.73;1676775;85;20159;-85
2021/06/02 07:24:16;;;;;;;;;;;;;;;24.23;42.48;97370.59;1669133;85;20159;-87
2021/06/02 07:26:43;;;;;;;;;;;;;;;24.33;34.87;97358.91;1678115;85;20196;-87
2021/06/02 07:29:09;;;;;;;;;;;;;;;24.44;32.44;97359.34;1638993;87;20185;-89
2021/06/02 07:31:35;;;;;;;;;;;;;;;24.26;36.63;97368.84;1638564;87;20501;-89
2021/06/02 07:34:01;;;;;;;;;;;;;;;23.34;32.89;97366.38;1638821;86;20227;-87
2021/06/02 07:36:27;;;;;;;;;;;;;;;23.42;33.08;97365.92;1638565;87;20181;-84
2021/06/02 07:38:53;;;;;;;;;;;;;;;23.78;36.50;97371.57;1644524;85;20178;-85
2021/06/02 07:41:20;;;;;;;;;;;;;;;23.97;40.21;97370.84;1684325;85;20478;-86
2021/06/02 07:43:46;;;;;;;;;;;;;;;24.30;36.07;97370.08;1684309;85;20171;-86
2021/06/02 07:46:12;;;;;;;;;;;;;;;24.68;34.40;97369.22;1683470;85;20530;-87
2021/06/02 07:48:38;;;;;;;;;;;;;;;24.87;32.53;97363.53;1684250;85;20155;-92
2021/06/02 07:51:06;;;;;;;;;;;;;;;24.95;35.79;97370.05;1684714;85;20222;-88
2021/06/02 07:53:33;;;;;;;;;;;;;;;24.78;31.03;97361.55;1684884;85;20166;-89
2021/06/02 07:55:59;;;;;;;;;;;;;;;24.39;31.14;97364.50;1685019;85;20182;-91
2021/06/02 07:58:25;;;;;;;;;;;;;;;24.07;34.20;97370.45;1684752;85;20206;-87
2021/06/02 08:00:51;;;;;;;;;;;;;;;23.98;34.06;97369.81;1684188;85;20476;-86
2021/06/02 08:03:17;;;;;;;;;;;;;;;23.92;38.21;97365.72;1710630;82;20168;-83
2021/06/02 08:05:43;;;;;;;;;;;;;;;23.88;33.73;97364.45;1711892;84;20461;-83
2021/06/02 08:08:09;;;;;;;;;;;;;;;23.74;37.27;97371.64;1712051;84;20168;-80
2021/06/02 08:10:36;;;;;;;;;;;;;;;23.38;34.80;97378.41;1711933;84;20157;-82
2021/06/02 08:13:02;;;;;;;;;;;;;;;23.15;37.28;97377.31;1712609;84;20157;-91
2021/06/02 08:15:29;;;;;;;;;;;;;;;22.67;34.45;97378.00;1692803;84;20176;-90
2021/06/02 08:17:56;;;;;;;;;;;;;;;22.39;35.34;97376.56;1712667;83;20156;-92
2021/06/02 08:20:23;;;;;;;;;;;;;;;22.17;38.74;97369.86;1712475;84;20164;-86
2021/06/02 08:22:51;;;;;;;;;;;;;;;21.86;36.35;97372.30;1712466;83;20157;-90
2021/06/02 08:25:18;;;;;;;;;;;;;;;21.56;34.24;97364.79;1712027;83;20186;-86
2021/06/02 08:27:46;;;;;;;;;;;;;;;21.35;36.25;97373.89;1692597;83;20167;-81
2021/06/02 08:30:13;;;;;;;;;;;;;;;21.03;34.83;97373.73;1708732;84;20156;-90
2021/06/02 08:32:40;;;;;;;;;;;;;;;20.97;38.17;97374.48;1708423;84;20237;-87
2021/06/02 08:35:08;;;;;;;;;;;;;;;20.87;36.00;97375.57;1700331;84;20175;-87
2021/06/02 08:37:35;;;;;;;;;;;;;;;20.80;35.73;97377.31;1691370;84;20519;-89
2021/06/02 08:40:01;;;;;;;;;;;;;;;20.74;35.95;97380.73;1707919;84;20489;-85
2021/06/02 08:42:31;;;;;;;;;;;;;;;20.65;36.18;97381.78;1705432;84;20227;-88
2021/06/02 08:44:59;;;;;;;;;;;;;;;19.99;34.46;97399.12;1700766;84;20148;-84
2021/06/02 08:47:25;;;;;;;;;;;;;;;19.34;34.64;97388.52;1711382;83;20526;-86
2021/06/02 08:49:51;;;;;;;;;;;;;;;18.72;35.59;97393.11;1708947;84;20144;-87
2021/06/02 08:52:18;;;;;;;;;;;;;;;18.67;37.13;97388.27;1710911;83;20629;-91
2021/06/02 08:54:44;;;;;;;;;;;;;;;18.78;36.58;97383.08;1711417;84;20196;-84
2021/06/02 08:57:11;;;;;;;;;;;;;;;18.54;36.89;97394.11;1711983;83;20461;-87
2021/06/02 08:59:38;;;;;;;;;;;;;;;18.23;37.42;97393.92;1712156;84;20484;-86
2021/06/02 09:02:04;;;;;;;;;;;;;;;18.00;38.10;97393.20;1711373;84;20592;-85
2021/06/02 09:04:33;;;;;;;;;;;;;;;17.90;38.57;97389.33;1709945;84;20169;-86
2021/06/02 09:07:04;;;;;;;;;;;;;;;17.84;38.64;97390.47;1709457;84;20200;-88
2021/06/02 09:09:32;;;;;;;;;;;;;;;17.71;39.04;97385.09;1711840;83;20529;-90
2021/06/02 09:12:04;;;;;;;;;;;;;;;17.60;39.45;97388.04;1699707;83;20217;-86
2021/06/02 09:14:35;;;;;;;;;;;;;;;17.48;39.66;97388.83;1697923;84;20185;-87
2021/06/02 09:17:05;;;;;;;;;;;;;;;17.59;39.41;97383.70;1698284;85;20165;-87
2021/06/02 09:19:40;;;;;;;;;;;;;;;17.76;39.36;97383.27;1697844;83;20246;-88
2021/06/02 09:22:09;;;;;;;;;;;;;;;17.76;38.82;97381.94;1694827;84;20505;-87
2021/06/02 09:24:51;;;;;;;;;;;;;;;17.72;39.39;97386.76;1668347;86;20191;-89
2021/06/02 09:27:20;;;;;;;;;;;;;;;17.96;39.09;97387.84;1668510;86;20167;-86
2021/06/02 09:29:54;;;;;;;;;;;;;;;17.94;39.47;97383.16;1649474;86;20163;-86
2021/06/02 09:32:23;;;;;;;;;;;;;;;18.30;39.02;97382.92;1668574;86;20531;-89
2021/06/02 09:34:51;;;;;;;;;;;;;;;18.57;38.69;97379.08;1694485;83;20163;-89
2021/06/02 09:37:17;;;;;;;;;;;;;;;18.94;39.36;97383.59;1726755;83;20170;-89
2021/06/02 09:39:44;;;;;;;;;;;;;;;19.02;37.72;97378.23;1727053;83;20159;-88
2021/06/02 09:42:26;;;;;;;;;;;;;;;19.03;37.52;97379.91;1727002;83;20219;-87
2021/06/02 09:45:09;;;;;;;;;;;;;;;18.85;37.64;97374.72;1727144;82;20151;-89
2021/06/02 09:47:46;;;;;;;;;;;;;;;19.01;37.42;97371.73;1726973;83;20151;-86
2021/06/02 09:50:17;;;;;;;;;;;;;;;19.23;37.86;97376.01;1727210;82;20179;-87
2021/06/02 09:52:52;;;;;;;;;;;;;;;19.24;34.59;97371.84;1725124;83;20203;-88
2021/06/02 09:55:33;;;;;;;;;;;;;;;19.47;36.19;97368.41;1727062;83;20151;-88
2021/06/02 09:58:09;;;;;;;;;;;;;;;19.87;36.68;97366.59;1726211;83;20518;-87
2021/06/02 10:00:46;;;;;;;;;;;;;;;19.71;33.36;97373.34;1702219;83;20193;-85
2021/06/02 10:03:15;;;;;;;;;;;;;;;19.64;32.62;97373.20;1693687;83;20250;-86
2021/06/02 10:05:48;;;;;;;;;;;;;;;19.59;34.25;97372.38;1719798;83;20160;-88
2021/06/02 10:08:27;;;;;;;;;;;;;;;19.88;33.52;97368.27;1720605;83;20184;-87
2021/06/02 10:10:54;;;;;;;;;;;;;;;19.98;33.26;97372.03;1667259;85;20198;-87
2021/06/02 10:13:21;;;;;;;;;;;;;;;19.91;33.28;97374.58;1720712;83;20190;-89
2021/06/02 10:15:49;;;;;;;;;;;;;;;19.45;32.02;97373.09;1721802;83;20515;-89
2021/06/02 10:18:37;;;;;;;;;;;;;;;19.13;32.50;97375.70;1714522;83;20199;-88
2021/06/02 10:21:08;;;;;;;;;;;;;;;18.86;32.97;97376.91;1717225;83;20210;-86
2021/06/02 10:23:39;;;;;;;;;;;;;;;18.79;32.66;97375.41;1717010;83;20277;-86
2021/06/02 10:26:06;;;;;;;;;;;;;;;18.79;32.78;97368.73;1715677;83;20168;-89
2021/06/02 10:28:32;;;;;;;;;;;;;;;18.83;33.18;97373.23;1721428;83;20140;-88
2021/06/02 10:31:01;;;;;;;;;;;;;;;18.96;34.05;97382.08;1721296;83;20496;-87
2021/06/02 10:33:29;;;;;;;;;;;;;;;18.82;32.35;97378.23;1719074;83;20170;-87
2021/06/02 10:35:57;;;;;;;;;;;;;;;18.70;33.79;97377.75;1721748;83;20152;-87
2021/06/02 10:38:23;;;;;;;;;;;;;;;18.76;32.99;97380.25;1720153;83;20156;-85
2021/06/02 10:40:51;;;;;;;;;;;;;;;18.84;34.10;97381.58;1721629;83;20168;-89
2021/06/02 10:43:23;;;;;;;;;;;;;;;18.96;32.72;97378.92;1721376;83;20552;-86
2021/06/02 10:46:01;;;;;;;;;;;;;;;18.92;33.36;97388.23;1720759;83;20172;-87
2021/06/02 10:48:57;;;;;;;;;;;;;;;19.02;33.63;97388.92;1719288;82;20516;-89
2021/06/02 10:51:37;;;;;;;;;;;;;;;19.09;34.10;97382.89;1721234;83;20172;-87
2021/06/02 10:54:14;;;;;;;;;;;;;;;19.39;33.23;97382.66;1721708;83;20172;-88
2021/06/02 10:57:07;;;;;;;;;;;;;;;19.68;33.12;97377.17;1721351;83;20172;-87
2021/06/02 10:59:38;;;;;;;;;;;;;;;19.93;32.52;97376.58;1720651;82;20224;-88
2021/06/02 11:02:19;;;;;;;;;;;;;;;20.00;32.36;97378.57;1720143;83;20536;-88
2021/06/02 11:05:00;;;;;;;;;;;;;;;20.20;30.95;97374.41;1693982;84;20500;-86
2021/06/02 11:07:30;;;;;;;;;;;;;;;20.35;30.68;97377.66;1712016;84;20504;-89
2021/06/02 11:10:02;;;;;;;;;;;;;;;20.07;31.06;97384.88;1711624;83;20149;-87
2021/06/02 11:12:52;;;;;;;;;;;;;;;20.19;32.12;97380.77;1689215;83;20210;-82
2021/06/02 11:15:35;;;;;;;;;;;;;;;20.38;32.30;97385.31;1697901;84;20169;-88
2021/06/02 11:18:18;;;;;;;;;;;;;;;20.33;31.96;97385.03;1711213;83;20156;-88
2021/06/02 11:21:00;;;;;;;;;;;;;;;20.41;30.96;97383.63;1711757;84;20521;-87
2021/06/02 11:23:32;;;;;;;;;;;;;;;20.34;30.49;97396.07;1711920;83;20505;-83
2021/06/02 11:26:23;;;;;;;;;;;;;;;20.29;32.04;97393.41;1712084;83;20164;-84
2021/06/02 11:28:50;;;;;;;;;;;;;;;20.19;31.15;97398.16;1708990;83;20216;-90
2021/06/02 11:31:27;;;;;;;;;;;;;;;20.23;31.93;97387.44;1706896;84;20152;-86
2021/06/02 11:34:14;;;;;;;;;;;;;;;20.15;30.58;97399.53;1712450;83;20157;-83
2021/06/02 11:37:07;;;;;;;;;;;;;;;19.69;31.02;97395.41;1707564;84;20164;-87
2021/06/02 11:39:37;;;;;;;;;;;;;;;19.66;31.88;97400.09;1700308;84;20189;-89
2021/06/02 11:42:09;;;;;;;;;;;;;;;20.03;32.15;97400.94;1711780;84;20480;-87
2021/06/02 11:44:38;;;;;;;;;;;;;;;20.22;32.21;97392.98;1698488;84;20234;-86
2021/06/02 11:47:11;;;;;;;;;;;;;;;20.33;31.76;97394.40;1696002;84;20168;-85
2021/06/02 11:49:36;;;;;;;;;;;;;;;20.33;32.43;97397.89;1709782;84;20148;-88
2021/06/02 11:52:08;;;;;;;;;;;;;;;20.45;31.88;97391.64;1675994;86;20168;-87
2021/06/02 11:54:52;;;;;;;;;;;;;;;20.78;32.08;97395.94;1682559;84;20175;-85
2021/06/02 11:57:31;;;;;;;;;;;;;;;20.93;31.51;97383.91;1681998;85;20171;-86
2021/06/02 12:00:00;;;;;;;;;;;;;;;20.88;31.60;97388.48;1710092;84;20137;-86
2021/06/02 12:02:27;;;;;;;;;;;;;;;20.64;29.73;97383.61;1710805;84;20161;-85
2021/06/02 12:04:53;;;;;;;;;;;;;;;20.20;28.73;97394.47;1709844;84;20178;-86
2021/06/02 12:07:23;;;;;;;;;;;;;;;19.70;30.48;97393.06;1709782;84;20548;-86
2021/06/02 12:09:57;;;;;;;;;;;;;;;19.62;31.62;97397.45;1700661;84;20176;-84
2021/06/02 12:12:25;;;;;;;;;;;;;;;19.58;30.61;97374.72;1710015;84;20224;-91
2021/06/02 12:14:57;;;;;;;;;;;;;;;19.68;31.55;97401.75;1709474;84;20173;-89
2021/06/02 12:17:33;;;;;;;;;;;;;;;19.69;31.69;97400.75;1698150;84;20228;-88
2021/06/02 12:20:07;;;;;;;;;;;;;;;19.54;31.49;97396.63;1708678;83;20169;-88
2021/06/02 12:22:44;;;;;;;;;;;;;;;19.03;31.62;97364.36;1697667;84;20241;-87
2021/06/02 12:25:20;;;;;;;;;;;;;;;19.43;30.64;97409.87;1697785;83;20169;-90
2021/06/02 12:28:15;;;;;;;;;;;;;;;19.58;31.52;97400.13;1697644;85;20173;-89
2021/06/02 12:30:41;;;;;;;;;;;;;;;19.87;31.99;97402.70;1697345;84;20176;-87
2021/06/02 12:33:12;;;;;;;;;;;;;;;20.30;31.98;97399.61;1674744;85;20160;-88
2021/06/02 12:35:47;;;;;;;;;;;;;;;20.50;31.65;97405.83;1697870;85;20169;-87
2021/06/02 12:38:20;;;;;;;;;;;;;;;20.16;31.64;97405.22;1695286;85;20561;-88
2021/06/02 12:40:52;;;;;;;;;;;;;;;20.13;31.72;97409.58;1696963;85;20157;-89
2021/06/02 12:43:22;;;;;;;;;;;;;;;19.90;31.61;97405.03;1694815;85;20517;-89
2021/06/02 12:45:50;;;;;;;;;;;;;;;19.63;31.63;97403.61;1697377;85;20169;-89
2021/06/02 12:48:20;;;;;;;;;;;;;;;19.51;32.23;97406.66;1706924;84;20164;-89
2021/06/02 12:50:51;;;;;;;;;;;;;;;19.33;32.39;97424.27;1708226;84;20216;-88
2021/06/02 12:53:19;;;;;;;;;;;;;;;18.76;33.37;97420.30;1692501;84;20165;-89
2021/06/02 12:55:49;;;;;;;;;;;;;;;18.55;34.17;97420.29;1683128;84;20145;-88
2021/06/02 12:58:18;;;;;;;;;;;;;;;18.38;34.76;97418.09;1666737;84;20642;-89
2021/06/02 13:00:48;;;;;;;;;;;;;;;18.38;35.02;97416.77;1689384;84;20174;-88
2021/06/02 13:03:21;;;;;;;;;;;;;;;18.54;35.07;97423.48;1691058;83;20183;-90
2021/06/02 13:05:51;;;;;;;;;;;;;;;18.75;35.25;97426.13;1711332;84;20156;-88
2021/06/02 13:08:17;;;;;;;;;;;;;;;18.89;34.94;97420.61;1710595;84;20184;-87
2021/06/02 13:10:45;;;;;;;;;;;;;;;18.76;34.68;97413.62;1699114;84;20586;-89
2021/06/02 13:13:17;;;;;;;;;;;;;;;18.47;35.23;97425.11;1712227;84;20286;-87
2021/06/02 13:15:46;;;;;;;;;;;;;;;18.43;35.38;97417.12;1712450;84;20493;-89
2021/06/02 13:18:21;;;;;;;;;;;;;;;18.30;36.01;97416.75;1711635;83;20158;-86
2021/06/02 13:20:47;;;;;;;;;;;;;;;18.24;35.46;97418.24;1710978;83;20236;-85
2021/06/02 13:23:20;;;;;;;;;;;;;;;18.11;36.02;97422.72;1704822;84;20182;-87
2021/06/02 13:26:04;;;;;;;;;;;;;;;18.16;36.04;97416.41;1713970;84;20184;-86
2021/06/02 13:28:33;;;;;;;;;;;;;;;18.33;36.23;97422.59;1685182;84;20511;-88
2021/06/02 13:31:02;;;;;;;;;;;;;;;18.44;35.80;97424.13;1702165;84;20176;-89
2021/06/02 13:33:43;;;;;;;;;;;;;;;18.63;35.98;97428.81;1704613;83;20591;-81
2021/06/02 13:36:11;;;;;;;;;;;;;;;18.76;35.25;97426.98;1659327;85;20163;-86